Thursday, March 30, 2017, 2:27 PM EDT

KOKV, Winchester Regional

Location: Winchester, VA, United States Lat: 39.15
Local Time: 2:27 PM EDT (18:27 GMT) Lon: -78.15
Time Zone: US/Eastern Elev: 728 ft

Show me the last for .
Show Decoded

2017-03-30 14:15 METAR KOKV 301815Z AUTO 15010G16KT 10SM OVC036 10/00 A3010 RMK AO2 LTG DSNT NW =
2017-03-30 13:55 METAR KOKV 301755Z AUTO 16012KT 10SM OVC038 10/00 A3011 RMK AO2 =
2017-03-30 13:35 METAR KOKV 301735Z AUTO 15011KT 7SM OVC040 09/00 A3013 RMK AO2 =
2017-03-30 13:15 METAR KOKV 301715Z AUTO 16009KT 10SM OVC040 10/00 A3014 RMK AO2 =
2017-03-30 12:55 METAR KOKV 301655Z AUTO 15009KT 10SM OVC040 09/00 A3016 RMK AO2 LTG DSNT NW =
2017-03-30 12:35 METAR KOKV 301635Z AUTO 15009KT 10SM OVC042 08/M01 A3016 RMK AO2 =
2017-03-30 12:15 METAR KOKV 301615Z AUTO 15010KT 7SM OVC042 10/00 A3016 RMK AO2 =
2017-03-30 11:55 METAR KOKV 301555Z AUTO 11008G14KT 7SM OVC042 09/00 A3017 RMK AO2 =
2017-03-30 11:35 METAR KOKV 301535Z AUTO 13008KT 7SM OVC044 08/00 A3018 RMK AO2 LTG DSNT W =
2017-03-30 11:15 METAR KOKV 301515Z AUTO 10009KT 10SM OVC046 08/00 A3020 RMK AO2 LTG DSNT NW =
2017-03-30 10:55 METAR KOKV 301455Z AUTO 10006KT 10SM OVC046 07/M01 A3020 RMK AO2 =
2017-03-30 10:35 METAR KOKV 301435Z AUTO 13008G14KT 10SM OVC046 08/M01 A3020 RMK AO2 =
2017-03-30 10:15 METAR KOKV 301415Z AUTO 09006KT 10SM OVC046 07/M01 A3021 RMK AO2 =
2017-03-30 09:55 METAR KOKV 301355Z AUTO 10005KT 10SM OVC048 06/M01 A3021 RMK AO2 =
2017-03-30 09:35 METAR KOKV 301335Z AUTO 09005KT 10SM OVC050 06/M01 A3021 RMK AO2 =
2017-03-30 09:15 METAR KOKV 301315Z AUTO 09008KT 10SM OVC050 06/M02 A3022 RMK AO2 =
2017-03-30 08:55 METAR KOKV 301255Z AUTO 09008KT 10SM OVC050 06/M02 A3022 RMK AO2 =
2017-03-30 08:35 METAR KOKV 301235Z AUTO 08006KT 10SM OVC050 06/M02 A3022 RMK AO2 =
2017-03-30 08:15 METAR KOKV 301215Z AUTO 08005KT 10SM OVC050 06/M01 A3022 RMK AO2 =
2017-03-30 07:55 METAR KOKV 301155Z AUTO 08004KT 10SM OVC060 06/M01 A3022 RMK AO2 =
2017-03-30 07:35 METAR KOKV 301135Z AUTO 08003KT 10SM OVC060 06/00 A3022 RMK AO2 =
2017-03-30 07:15 METAR KOKV 301115Z AUTO 07003KT 10SM OVC060 05/00 A3022 RMK AO2 =
2017-03-30 06:55 METAR KOKV 301055Z AUTO 06004KT 10SM OVC060 05/00 A3022 RMK AO2 =
2017-03-30 06:35 METAR KOKV 301035Z AUTO 05003KT 10SM OVC060 05/00 A3021 RMK AO2 =
2017-03-30 06:15 METAR KOKV 301015Z AUTO 00000KT 10SM OVC060 05/00 A3021 RMK AO2 =
2017-03-30 05:55 METAR KOKV 300955Z AUTO 00000KT 10SM OVC060 05/00 A3020 RMK AO2 =
2017-03-30 05:35 METAR KOKV 300935Z AUTO 06004KT 10SM OVC060 05/00 A3020 RMK AO2 =
2017-03-30 05:15 METAR KOKV 300915Z AUTO 05003KT 10SM OVC060 05/00 A3020 RMK AO2 =
2017-03-30 04:55 METAR KOKV 300855Z AUTO 03003KT 10SM OVC060 05/00 A3020 RMK AO2 =
2017-03-30 04:35 METAR KOKV 300835Z AUTO 00000KT 10SM OVC060 05/00 A3018 RMK AO2 =
2017-03-30 04:15 METAR KOKV 300815Z AUTO 03003KT 10SM OVC070 05/00 A3018 RMK AO2 =
2017-03-30 03:55 METAR KOKV 300755Z AUTO 00000KT 10SM BKN070 05/00 A3020 RMK AO2 =
2017-03-30 03:35 METAR KOKV 300735Z AUTO 03004KT 10SM CLR 05/00 A3018 RMK AO2 =
2017-03-30 03:15 METAR KOKV 300715Z AUTO 00000KT 10SM CLR 03/00 A3018 RMK AO2 =
2017-03-30 02:55 METAR KOKV 300655Z AUTO 00000KT 10SM CLR 03/00 A3017 RMK AO2 =
2017-03-30 02:35 METAR KOKV 300635Z AUTO 00000KT 10SM CLR 06/00 A3017 RMK AO2 =
2017-03-30 02:15 METAR KOKV 300615Z AUTO 00000KT 10SM CLR 05/00 A3018 RMK AO2 =
2017-03-30 01:55 METAR KOKV 300555Z AUTO 00000KT 10SM CLR 03/01 A3020 RMK AO2 =
2017-03-30 01:35 METAR KOKV 300535Z AUTO 00000KT 10SM CLR 04/01 A3019 RMK AO2 =
2017-03-30 01:15 METAR KOKV 300515Z AUTO 00000KT 10SM CLR 05/00 A3018 RMK AO2 =
2017-03-30 00:55 METAR KOKV 300455Z AUTO 00000KT 10SM CLR 05/01 A3018 RMK AO2 =
2017-03-30 00:35 METAR KOKV 300435Z AUTO 00000KT 10SM CLR 05/01 A3018 RMK AO2 =
2017-03-30 00:15 METAR KOKV 300415Z AUTO 00000KT 10SM CLR 06/01 A3018 RMK AO2 =
2017-03-29 23:55 METAR KOKV 300355Z AUTO 00000KT 10SM CLR 06/01 A3019 RMK AO2 =
2017-03-29 23:35 METAR KOKV 300335Z AUTO 00000KT 10SM CLR 08/01 A3018 RMK AO2 =
2017-03-29 23:15 METAR KOKV 300315Z AUTO 00000KT 10SM CLR 08/01 A3018 RMK AO2 =
2017-03-29 22:55 METAR KOKV 300255Z AUTO 04004KT 10SM CLR 08/01 A3018 RMK AO2 =
2017-03-29 22:35 METAR KOKV 300235Z AUTO 00000KT 10SM CLR 07/02 A3018 RMK AO2 =
2017-03-29 22:15 METAR KOKV 300215Z AUTO 00000KT 10SM CLR 07/02 A3017 RMK AO2 =
2017-03-29 21:55 METAR KOKV 300155Z AUTO 00000KT 10SM CLR 07/02 A3017 RMK AO2 =
2017-03-29 21:35 METAR KOKV 300135Z AUTO 00000KT 10SM CLR 08/02 A3017 RMK AO2 =
2017-03-29 21:15 METAR KOKV 300115Z AUTO 00000KT 10SM CLR 08/02 A3016 RMK AO2 =
2017-03-29 20:55 METAR KOKV 300055Z AUTO 00000KT 10SM CLR 10/02 A3016 RMK AO2 =
2017-03-29 20:35 METAR KOKV 300035Z AUTO 00000KT 10SM CLR 10/03 A3015 RMK AO2 =
2017-03-29 20:15 METAR KOKV 300015Z AUTO 00000KT 10SM CLR 10/03 A3014 RMK AO2 =
2017-03-29 19:55 METAR KOKV 292355Z AUTO 08003KT 10SM CLR 13/02 A3013 RMK AO2 =
2017-03-29 19:35 METAR KOKV 292335Z AUTO 07003KT 10SM CLR 14/02 A3012 RMK AO2 =
2017-03-29 19:15 METAR KOKV 292315Z AUTO 06003KT 10SM CLR 15/02 A3012 RMK AO2 =
2017-03-29 18:55 METAR KOKV 292255Z AUTO 07003KT 10SM CLR 15/02 A3011 RMK AO2 =
2017-03-29 18:35 METAR KOKV 292235Z AUTO 08006KT 10SM CLR 16/02 A3011 RMK AO2 =
2017-03-29 18:15 METAR KOKV 292215Z AUTO 08005KT 10SM CLR 16/02 A3010 RMK AO2 =
2017-03-29 17:55 METAR KOKV 292155Z AUTO 02003KT 10SM CLR 17/01 A3010 RMK AO2 =
2017-03-29 17:35 METAR KOKV 292135Z AUTO 05006KT 10SM CLR 17/01 A3009 RMK AO2 =
2017-03-29 17:15 METAR KOKV 292115Z AUTO 06004KT 10SM CLR 17/02 A3010 RMK AO2 =
2017-03-29 16:55 METAR KOKV 292055Z AUTO 04003KT 10SM CLR 16/01 A3010 RMK AO2 =
2017-03-29 16:35 METAR KOKV 292035Z AUTO 01006KT 10SM CLR 17/01 A3010 RMK AO2 =
2017-03-29 16:15 METAR KOKV 292015Z AUTO 34007G14KT 280V120 10SM CLR 17/01 A3009 RMK AO2 =
2017-03-29 15:55 METAR KOKV 291955Z AUTO 07006KT 10SM CLR 16/01 A3009 RMK AO2 =
2017-03-29 15:35 METAR KOKV 291935Z AUTO 04004KT 10SM CLR 16/01 A3009 RMK AO2 =
2017-03-29 15:15 METAR KOKV 291915Z AUTO 02003KT 10SM CLR 16/02 A3010 RMK AO2 =
2017-03-29 14:55 METAR KOKV 291855Z AUTO 33004KT 10SM CLR 16/02 A3010 RMK AO2 =
2017-03-29 14:35 METAR KOKV 291835Z AUTO 35006KT 10SM CLR 15/02 A3011 RMK AO2 =

Support USWX by starting your Amazon purchase here.